Flight Track Log - Related Links

Times and Time Zones

All times are in EDT time to prevent confusion due to time zone crossing. See the ASQ4090 flight status page for this flight to view local times or setup timezone preferences in your user account.

Time Position Orientation Groundspeed Altitude Reporting Facility
EDT Latitude Longitude Course Direction KTS MPH feet Rate Location/Type
06:40AM 31.3408 -92.5678 251° West 148 170 1,000  Level Houston Center
06:41AM 31.3236 -92.6258 232° Southwest 212 244 3,500 2,628 Climbing Houston Center
06:42AM 31.2794 -92.6908 231° Southwest 264 304 6,300 2,835 Climbing Houston Center
06:43AM 31.2244 -92.7706 232° Southwest 284 327 9,500 2,333 Climbing Houston Center
06:44AM 31.1739 -92.8475 231° Southwest 295 339 11,200 1,750 Climbing Houston Center
06:45AM 31.1103 -92.9389 232° Southwest 334 384 13,000 1,950 Climbing Houston Center
06:46AM 31.0469 -93.0328 233° Southwest 367 422 15,100 2,150 Climbing Houston Center
06:47AM 30.9853 -93.1286 236° Southwest 380 437 17,300 2,050 Climbing Houston Center
06:48AM 30.9278 -93.2269 233° Southwest 380 437 19,200 1,350 Climbing Houston Center
06:49AM 30.8619 -93.3278 234° Southwest 380 437 20,000 400 Climbing Houston Center
06:50AM 30.7939 -93.4353 234° Southwest 397 457 20,000  Level Houston Center
06:51AM 30.7278 -93.5428 232° Southwest 410 472 20,000  Level Houston Center
06:52AM 30.6617 -93.6406 235° Southwest 421 484 20,000  Level Houston Center
06:53AM 30.5931 -93.7525 233° Southwest 426 490 20,000  Level Houston Center
06:54AM 30.5225 -93.8597 234° Southwest 431 496 20,000 -900 Level Houston Center
06:55AM 30.4519 -93.9714 234° Southwest 431 496 18,200 -1,950 Descending Houston Center
06:56AM 30.3853 -94.0758 233° Southwest 431 496 16,100 -2,100 Descending Houston Center
06:57AM 30.3189 -94.1775 233° Southwest 421 484 14,000 -2,235 Descending Houston Center
06:58AM 30.2628 -94.2650 235° Southwest 396 456 12,300 -1,000 Descending Houston Center
06:59AM 30.1958 -94.3764 244° Southwest 392 451 12,000 -522 Descending Houston Center
07:00AM 30.1564 -94.4689 248° West 355 409 11,100 -1,300 Descending Houston Center
07:01AM 30.1233 -94.5642 249° West 315 362 9,400 -1,800 Descending Houston Center
07:02AM 30.0942 -94.6522 249° West 298 343 7,500 -1,550 Descending Houston Center
07:03AM 30.0672 -94.7331 248° West 288 331 6,300 -1,300 Descending Houston Center
07:04AM 30.0383 -94.8161 248° West 288 331 4,900 -1,150 Descending Houston Center
07:05AM 30.0114 -94.8944 249° West 282 325 4,000 -568 Descending Houston Center
07:06AM 29.9956 -94.9417 253° West 264 304 4,000  Level Houston Center
07:07AM 29.9772 -95.0108 268° West 226 260 4,000  Level Houston Center
07:07AM 29.9764 -95.0442 268° West 249 287 4,000 -98 Level Houston Center
07:08AM 29.9756 -95.0778 273° West 196 226 3,900 -500 Descending Houston Center
07:08AM 29.9769 -95.1042 273° West 218 251 3,500 -885 Descending Houston Center
07:09AM 29.9783 -95.1378 268° West 192 221 3,000 -1,055 Descending Houston Center
07:10AM 29.9767 -95.2000 271° West 187 215 1,900 -893 Descending Houston Center
07:11AM 29.9775 -95.2481 271° West 130 150 1,200 -709 Descending Houston Center
07:12AM 29.9783 -95.2914 271° West 121 139 400 -727 Descending Houston Center

Login

Don't have an account? Register now (free) for customized features, flight alerts, and more!